Time;durP1;ratioP1;P1;durP2;ratioP2;P2;SDS_P1;SDS_P2;PMS_P1;PMS_P2;Temp;Humidity;BMP_temperature;BMP_pressure;BME280_temperature;BME280_humidity;BME280_pressure;Samples;Min_cycle;Max_cycle;Signal;HPM_P1;HPM_P2
2021/12/11 00:00:25;;;;;;;4.87;1.93;;;;;;;;;;5077885;28;20444;-66
2021/12/11 00:02:57;;;;;;;3.27;1.40;;;;;;;;;;5077735;28;20487;-65
2021/12/11 00:05:26;;;;;;;6.50;1.50;;;;;;;;;;5078233;28;20483;-66
2021/12/11 00:07:54;;;;;;;2.83;1.30;;;;;;;;;;5084988;28;20225;-66
2021/12/11 00:10:26;;;;;;;3.60;1.60;;;;;;;;;;5098196;28;20977;-66
2021/12/11 00:12:55;;;;;;;5.13;2.33;;;;;;;;;;5098069;28;20683;-66
2021/12/11 00:15:25;;;;;;;3.47;1.67;;;;;;;;;;5083096;28;20209;-66
2021/12/11 00:17:57;;;;;;;2.73;1.20;;;;;;;;;;5077691;28;20213;-66
2021/12/11 00:20:26;;;;;;;3.77;1.93;;;;;;;;;;5077985;28;20209;-66
2021/12/11 00:22:54;;;;;;;6.00;2.10;;;;;;;;;;5078133;28;20270;-66
2021/12/11 00:25:24;;;;;;;4.70;1.47;;;;;;;;;;5077790;28;20294;-66
2021/12/11 00:27:53;;;;;;;4.63;1.57;;;;;;;;;;5078169;28;20230;-66
2021/12/11 00:30:23;;;;;;;3.13;1.33;;;;;;;;;;5078622;28;20208;-66
2021/12/11 00:32:58;;;;;;;4.50;1.33;;;;;;;;;;5078271;28;20260;-66
2021/12/11 00:35:26;;;;;;;6.57;1.70;;;;;;;;;;5077741;28;20654;-66
2021/12/11 00:38:01;;;;;;;2.20;1.57;;;;;;;;;;5077327;28;20234;-66
2021/12/11 00:40:30;;;;;;;4.43;1.60;;;;;;;;;;5077626;28;20245;-65
2021/12/11 00:43:02;;;;;;;4.23;1.30;;;;;;;;;;5077593;28;20611;-66
2021/12/11 00:45:35;;;;;;;3.83;1.23;;;;;;;;;;5077930;28;20206;-66
2021/12/11 00:48:05;;;;;;;3.03;1.67;;;;;;;;;;5090519;28;20226;-66
2021/12/11 00:50:36;;;;;;;4.83;1.43;;;;;;;;;;5077894;28;20210;-66
2021/12/11 00:53:08;;;;;;;5.80;1.43;;;;;;;;;;5077462;28;20206;-66
2021/12/11 00:55:39;;;;;;;3.27;1.53;;;;;;;;;;5077487;28;20212;-66
2021/12/11 00:58:09;;;;;;;2.13;1.27;;;;;;;;;;5077341;28;20682;-66
2021/12/11 01:00:40;;;;;;;4.40;1.83;;;;;;;;;;5077763;28;20212;-66
2021/12/11 01:03:09;;;;;;;6.97;1.70;;;;;;;;;;5084859;28;20553;-66
2021/12/11 01:05:40;;;;;;;6.37;1.60;;;;;;;;;;5098119;28;20205;-66
2021/12/11 01:08:20;;;;;;;4.93;1.33;;;;;;;;;;5097675;28;20240;-66
2021/12/11 01:10:50;;;;;;;6.37;1.33;;;;;;;;;;5097690;28;20284;-66
2021/12/11 01:13:23;;;;;;;5.80;1.27;;;;;;;;;;5097396;28;20279;-66
2021/12/11 01:15:55;;;;;;;2.70;1.17;;;;;;;;;;5097805;28;20641;-66
2021/12/11 01:18:34;;;;;;;3.03;1.30;;;;;;;;;;5097191;28;20248;-66
2021/12/11 01:21:13;;;;;;;3.90;1.50;;;;;;;;;;5097653;28;20206;-66
2021/12/11 01:24:07;;;;;;;3.80;1.00;;;;;;;;;;5097561;28;20209;-66
2021/12/11 01:26:37;;;;;;;2.70;1.40;;;;;;;;;;5097509;28;20578;-66
2021/12/11 01:29:05;;;;;;;6.30;1.50;;;;;;;;;;5090304;28;20236;-66
2021/12/11 01:31:33;;;;;;;1.83;1.13;;;;;;;;;;5076916;28;20606;-65
2021/12/11 01:34:02;;;;;;;1.63;0.90;;;;;;;;;;5077028;28;20448;-66
2021/12/11 01:36:30;;;;;;;3.60;1.40;;;;;;;;;;5076981;28;20479;-66
2021/12/11 01:39:00;;;;;;;1.93;0.90;;;;;;;;;;5084897;28;20460;-66
2021/12/11 01:41:29;;;;;;;3.33;1.13;;;;;;;;;;5081777;28;20531;-66
2021/12/11 01:44:00;;;;;;;1.70;0.80;;;;;;;;;;5076862;28;20449;-66
2021/12/11 01:46:28;;;;;;;2.67;1.27;;;;;;;;;;5080608;28;20440;-66
2021/12/11 01:48:58;;;;;;;2.93;1.07;;;;;;;;;;5086329;28;20490;-66
2021/12/11 01:51:28;;;;;;;1.93;0.80;;;;;;;;;;5077011;28;20527;-66
2021/12/11 01:53:59;;;;;;;1.60;0.90;;;;;;;;;;5077187;28;20479;-66
2021/12/11 01:56:29;;;;;;;4.93;0.80;;;;;;;;;;5076839;28;21053;-66
2021/12/11 01:59:00;;;;;;;8.50;1.87;;;;;;;;;;5077027;28;20232;-66
2021/12/11 02:01:30;;;;;;;4.83;1.70;;;;;;;;;;5083935;28;20535;-66
2021/12/11 02:04:01;;;;;;;2.00;1.10;;;;;;;;;;5096965;28;20205;-66
2021/12/11 02:06:31;;;;;;;1.30;1.20;;;;;;;;;;5097406;28;20237;-66
2021/12/11 02:08:59;;;;;;;4.03;1.67;;;;;;;;;;5098746;28;20229;-66
2021/12/11 02:11:29;;;;;;;2.57;1.20;;;;;;;;;;5100902;28;20209;-66
2021/12/11 02:14:04;;;;;;;7.10;1.20;;;;;;;;;;5100698;28;20215;-66
2021/12/11 02:16:34;;;;;;;2.83;1.47;;;;;;;;;;5100546;28;20288;-66
2021/12/11 02:19:05;;;;;;;2.70;1.40;;;;;;;;;;5101058;28;20505;-66
2021/12/11 02:21:34;;;;;;;2.13;1.27;;;;;;;;;;5100549;28;20205;-66
2021/12/11 02:24:06;;;;;;;3.63;1.40;;;;;;;;;;5100707;28;20214;-66
2021/12/11 02:26:36;;;;;;;5.97;1.33;;;;;;;;;;5100453;28;20227;-66
2021/12/11 02:29:07;;;;;;;3.43;1.10;;;;;;;;;;5092870;28;20229;-66
2021/12/11 02:31:37;;;;;;;5.03;1.60;;;;;;;;;;5079809;28;20218;-66
2021/12/11 02:34:09;;;;;;;5.60;1.23;;;;;;;;;;5079955;28;20454;-66
2021/12/11 02:36:40;;;;;;;5.77;1.50;;;;;;;;;;5079805;28;20234;-66
2021/12/11 02:39:12;;;;;;;4.10;1.37;;;;;;;;;;5089181;28;20222;-66
2021/12/11 02:41:42;;;;;;;3.77;1.17;;;;;;;;;;5082015;28;20213;-66
2021/12/11 02:44:12;;;;;;;5.77;1.20;;;;;;;;;;5079684;28;20255;-66
2021/12/11 02:46:41;;;;;;;3.50;1.20;;;;;;;;;;5084887;28;20202;-66
2021/12/11 02:49:11;;;;;;;5.63;1.57;;;;;;;;;;5087457;28;20327;-65
2021/12/11 02:51:41;;;;;;;3.93;1.40;;;;;;;;;;5079827;28;20206;-66
2021/12/11 02:54:13;;;;;;;2.40;1.00;;;;;;;;;;5079662;28;20213;-66
2021/12/11 02:56:43;;;;;;;5.23;1.37;;;;;;;;;;5079740;28;20206;-66
2021/12/11 02:59:13;;;;;;;2.07;1.40;;;;;;;;;;5079290;28;20308;-66
2021/12/11 03:01:43;;;;;;;4.70;1.60;;;;;;;;;;5079127;28;20247;-66
2021/12/11 03:04:18;;;;;;;6.87;1.43;;;;;;;;;;5079525;28;20243;-66
2021/12/11 03:06:48;;;;;;;4.93;1.60;;;;;;;;;;5079232;28;20209;-66
2021/12/11 03:09:19;;;;;;;5.50;1.10;;;;;;;;;;5079116;28;20226;-65
2021/12/11 03:11:47;;;;;;;4.57;1.10;;;;;;;;;;5079107;28;20681;-66
2021/12/11 03:14:18;;;;;;;4.30;1.33;;;;;;;;;;5079317;28;20213;-66
2021/12/11 03:16:48;;;;;;;5.17;1.30;;;;;;;;;;5078937;28;20218;-66
2021/12/11 03:19:17;;;;;;;4.47;1.60;;;;;;;;;;5086347;28;20222;-66
2021/12/11 03:21:46;;;;;;;3.90;1.67;;;;;;;;;;5099039;28;20201;-66
2021/12/11 03:24:14;;;;;;;5.57;1.23;;;;;;;;;;5099273;28;20216;-66
2021/12/11 03:26:45;;;;;;;2.87;1.47;;;;;;;;;;5099597;28;20288;-66
2021/12/11 03:29:13;;;;;;;2.30;1.40;;;;;;;;;;5090002;28;20243;-66
2021/12/11 03:31:41;;;;;;;2.23;0.93;;;;;;;;;;5078684;28;20206;-66
2021/12/11 03:34:10;;;;;;;5.77;1.50;;;;;;;;;;5078941;28;20692;-66
2021/12/11 03:36:39;;;;;;;6.43;1.67;;;;;;;;;;5085433;28;20319;-66
2021/12/11 03:39:09;;;;;;;4.70;1.30;;;;;;;;;;5091461;28;20216;-66
2021/12/11 03:41:37;;;;;;;4.57;1.13;;;;;;;;;;5090203;28;20332;-66
2021/12/11 03:44:07;;;;;;;4.13;1.50;;;;;;;;;;5090083;28;20198;-65
2021/12/11 03:46:35;;;;;;;2.67;1.17;;;;;;;;;;5091904;28;20229;-66
2021/12/11 03:49:06;;;;;;;3.87;1.60;;;;;;;;;;5091450;28;20592;-65
2021/12/11 03:51:36;;;;;;;3.90;1.67;;;;;;;;;;5091835;28;20198;-65
2021/12/11 03:54:06;;;;;;;2.93;1.43;;;;;;;;;;5089064;28;20198;-65
2021/12/11 03:56:34;;;;;;;3.67;1.53;;;;;;;;;;5091134;28;20201;-65
2021/12/11 03:59:08;;;;;;;2.43;1.67;;;;;;;;;;5087715;28;20249;-66
2021/12/11 04:01:40;;;;;;;3.93;1.33;;;;;;;;;;5087685;28;20209;-65
2021/12/11 04:04:10;;;;;;;4.23;1.20;;;;;;;;;;5089782;28;20234;-64
2021/12/11 04:06:38;;;;;;;3.10;1.20;;;;;;;;;;5090676;28;20209;-65
2021/12/11 04:09:09;;;;;;;3.37;1.10;;;;;;;;;;5088895;28;20221;-65
2021/12/11 04:11:38;;;;;;;1.97;1.10;;;;;;;;;;5091286;28;20216;-65
2021/12/11 04:14:11;;;;;;;5.20;1.63;;;;;;;;;;5089609;28;20201;-65
2021/12/11 04:16:40;;;;;;;2.63;1.43;;;;;;;;;;5088395;28;20745;-66
2021/12/11 04:19:09;;;;;;;4.37;1.87;;;;;;;;;;5089431;28;20217;-65
2021/12/11 04:21:37;;;;;;;3.53;1.53;;;;;;;;;;5086835;28;20438;-65
2021/12/11 04:24:06;;;;;;;2.90;1.50;;;;;;;;;;5092038;28;20202;-65
2021/12/11 04:26:34;;;;;;;3.57;1.43;;;;;;;;;;5093470;28;20202;-65
2021/12/11 04:29:03;;;;;;;3.13;1.13;;;;;;;;;;5079956;28;20228;-65
2021/12/11 04:31:32;;;;;;;6.10;1.83;;;;;;;;;;5076893;28;21016;-65
2021/12/11 04:34:03;;;;;;;5.53;1.43;;;;;;;;;;5077914;28;20202;-65
2021/12/11 04:36:33;;;;;;;5.77;1.53;;;;;;;;;;5077742;28;20236;-66
2021/12/11 04:39:02;;;;;;;4.80;1.30;;;;;;;;;;5085932;28;20226;-65
2021/12/11 04:41:36;;;;;;;5.90;1.93;;;;;;;;;;5086943;28;20193;-65
2021/12/11 04:44:05;;;;;;;7.20;1.47;;;;;;;;;;5076870;28;20311;-65
2021/12/11 04:46:34;;;;;;;3.87;2.07;;;;;;;;;;5079814;28;20200;-66
2021/12/11 04:49:10;;;;;;;3.83;1.50;;;;;;;;;;5085153;28;20864;-66
2021/12/11 04:51:45;;;;;;;5.20;1.60;;;;;;;;;;5075768;28;20225;-66
2021/12/11 04:54:28;;;;;;;4.47;1.70;;;;;;;;;;5075792;28;20205;-66
2021/12/11 04:59:57;;;;;;;2.50;1.40;;;;;;;;;;5064595;28;20228;-65
2021/12/11 05:05:23;;;;;;;6.43;1.57;;;;;;;;;;5097690;28;20288;-66
2021/12/11 05:08:11;;;;;;;1.70;1.00;;;;;;;;;;5097913;28;20269;-65
2021/12/11 05:10:48;;;;;;;2.50;1.20;;;;;;;;;;5097478;28;20227;-65
2021/12/11 05:13:17;;;;;;;3.60;1.33;;;;;;;;;;5097771;28;20209;-65
2021/12/11 05:15:47;;;;;;;1.63;1.00;;;;;;;;;;5097827;28;20213;-65
2021/12/11 05:18:16;;;;;;;1.53;1.00;;;;;;;;;;5097320;28;20225;-66
2021/12/11 05:20:47;;;;;;;3.67;1.00;;;;;;;;;;5098861;28;20205;-65
2021/12/11 05:23:16;;;;;;;2.83;1.23;;;;;;;;;;5098703;28;20202;-65
2021/12/11 05:25:44;;;;;;;4.53;1.27;;;;;;;;;;5098460;28;20290;-66
2021/12/11 05:28:12;;;;;;;3.97;1.43;;;;;;;;;;5096467;28;20455;-65
2021/12/11 05:30:41;;;;;;;3.67;1.93;;;;;;;;;;5077441;28;20230;-66
2021/12/11 05:33:11;;;;;;;3.47;1.30;;;;;;;;;;5077050;28;20440;-66
2021/12/11 05:35:40;;;;;;;2.40;1.40;;;;;;;;;;5077583;28;20463;-65
2021/12/11 05:38:11;;;;;;;2.20;1.10;;;;;;;;;;5077662;28;20238;-65
2021/12/11 05:40:40;;;;;;;1.10;1.00;;;;;;;;;;5087952;28;20449;-65
2021/12/11 05:43:09;;;;;;;2.87;1.47;;;;;;;;;;5079423;28;20210;-65
2021/12/11 05:45:36;;;;;;;1.87;0.90;;;;;;;;;;5081114;28;20448;-65
2021/12/11 05:48:05;;;;;;;4.73;1.23;;;;;;;;;;5093868;28;20547;-65
2021/12/11 05:50:34;;;;;;;2.43;1.03;;;;;;;;;;5080733;28;20490;-65
2021/12/11 05:53:03;;;;;;;1.77;1.43;;;;;;;;;;5080748;28;20472;-66
2021/12/11 05:55:34;;;;;;;2.00;0.80;;;;;;;;;;5080956;28;20212;-65
2021/12/11 05:58:10;;;;;;;4.13;1.50;;;;;;;;;;5080643;28;20471;-65
2021/12/11 06:00:39;;;;;;;6.50;2.23;;;;;;;;;;5080670;28;20440;-65
2021/12/11 06:03:08;;;;;;;2.60;1.57;;;;;;;;;;5080463;28;20446;-65
2021/12/11 06:05:36;;;;;;;4.80;1.73;;;;;;;;;;5080602;28;20448;-65
2021/12/11 06:08:04;;;;;;;1.77;1.00;;;;;;;;;;5080809;28;20464;-66
2021/12/11 06:10:34;;;;;;;3.80;1.20;;;;;;;;;;5080436;28;21021;-65
2021/12/11 06:13:02;;;;;;;2.33;1.50;;;;;;;;;;5080149;28;20448;-65
2021/12/11 06:15:31;;;;;;;1.90;1.20;;;;;;;;;;5080240;28;20429;-65
2021/12/11 06:18:01;;;;;;;4.60;1.37;;;;;;;;;;5080603;28;20781;-65
2021/12/11 06:20:31;;;;;;;2.00;1.07;;;;;;;;;;5081460;28;20445;-65
2021/12/11 06:23:04;;;;;;;1.37;1.10;;;;;;;;;;5080635;28;20671;-66
2021/12/11 06:25:33;;;;;;;4.87;1.10;;;;;;;;;;5083121;28;20444;-66
2021/12/11 06:28:02;;;;;;;6.53;1.60;;;;;;;;;;5086557;28;20297;-66
2021/12/11 06:30:30;;;;;;;6.43;1.50;;;;;;;;;;5089348;28;20983;-65
2021/12/11 06:32:58;;;;;;;4.40;1.50;;;;;;;;;;5093648;28;20439;-65
2021/12/11 06:35:30;;;;;;;2.97;1.17;;;;;;;;;;5100433;28;20450;-66
2021/12/11 06:37:59;;;;;;;3.17;1.30;;;;;;;;;;5092330;28;20236;-65
2021/12/11 06:40:28;;;;;;;3.47;1.27;;;;;;;;;;5089625;28;20442;-66
2021/12/11 06:42:56;;;;;;;5.00;1.53;;;;;;;;;;5088121;28;20665;-65
2021/12/11 06:45:26;;;;;;;2.83;1.30;;;;;;;;;;5091075;28;20568;-65
2021/12/11 06:47:54;;;;;;;5.47;2.03;;;;;;;;;;5093006;28;20446;-66
2021/12/11 06:50:24;;;;;;;5.07;1.57;;;;;;;;;;5090950;28;20193;-66
2021/12/11 06:52:54;;;;;;;3.70;1.30;;;;;;;;;;5090540;28;20194;-65
2021/12/11 06:55:22;;;;;;;3.60;1.23;;;;;;;;;;5092825;28;20205;-65
2021/12/11 06:57:50;;;;;;;4.20;1.70;;;;;;;;;;5091054;28;20537;-65
2021/12/11 07:00:19;;;;;;;3.07;1.40;;;;;;;;;;5087341;28;20455;-67
2021/12/11 07:02:49;;;;;;;2.47;1.20;;;;;;;;;;5090865;28;20437;-67
2021/12/11 07:05:17;;;;;;;1.47;1.17;;;;;;;;;;5087790;28;20460;-67
2021/12/11 07:07:46;;;;;;;4.60;2.27;;;;;;;;;;5089100;28;20209;-67
2021/12/11 07:10:14;;;;;;;2.33;1.17;;;;;;;;;;5097697;28;20440;-67
2021/12/11 07:12:43;;;;;;;2.17;1.33;;;;;;;;;;5093312;28;20480;-67
2021/12/11 07:15:11;;;;;;;2.17;1.40;;;;;;;;;;5094322;28;20474;-65
2021/12/11 07:17:39;;;;;;;2.10;1.50;;;;;;;;;;5096414;28;20442;-66
2021/12/11 07:20:11;;;;;;;3.93;1.50;;;;;;;;;;5097340;28;20546;-66
2021/12/11 07:22:41;;;;;;;3.43;1.73;;;;;;;;;;5094317;28;20865;-66
2021/12/11 07:25:12;;;;;;;2.40;1.33;;;;;;;;;;5097760;28;20436;-66
2021/12/11 07:27:40;;;;;;;2.40;1.60;;;;;;;;;;5095608;28;20215;-66
2021/12/11 07:30:09;;;;;;;2.63;1.67;;;;;;;;;;5094381;28;20446;-66
2021/12/11 07:32:37;;;;;;;1.33;1.20;;;;;;;;;;5098152;28;20221;-66
2021/12/11 07:35:06;;;;;;;5.53;1.77;;;;;;;;;;5081757;28;20213;-66
2021/12/11 07:37:36;;;;;;;6.27;1.70;;;;;;;;;;5078676;28;20241;-66
2021/12/11 07:40:05;;;;;;;2.57;1.30;;;;;;;;;;5091191;28;21014;-66
2021/12/11 07:42:33;;;;;;;5.17;1.73;;;;;;;;;;5078751;28;20444;-66
2021/12/11 07:45:01;;;;;;;1.90;1.20;;;;;;;;;;5078333;28;20205;-66
2021/12/11 07:47:29;;;;;;;5.50;1.50;;;;;;;;;;5090738;28;20205;-66
2021/12/11 07:49:57;;;;;;;5.27;1.40;;;;;;;;;;5079529;28;20230;-66
2021/12/11 07:52:25;;;;;;;5.00;1.47;;;;;;;;;;5082287;28;20483;-66
2021/12/11 07:54:55;;;;;;;6.47;1.90;;;;;;;;;;5094495;28;20685;-67
2021/12/11 07:57:23;;;;;;;2.27;1.60;;;;;;;;;;5078227;28;20212;-67
2021/12/11 07:59:51;;;;;;;5.70;1.90;;;;;;;;;;5087219;28;20236;-67
2021/12/11 08:02:19;;;;;;;6.70;1.67;;;;;;;;;;5087585;28;20208;-67
2021/12/11 08:04:47;;;;;;;3.80;1.90;;;;;;;;;;5089424;28;20450;-67
2021/12/11 08:07:15;;;;;;;3.83;1.70;;;;;;;;;;5087886;28;20435;-66
2021/12/11 08:09:43;;;;;;;3.17;1.83;;;;;;;;;;5087168;28;20213;-67
2021/12/11 08:12:13;;;;;;;4.13;1.90;;;;;;;;;;5091247;28;20217;-67
2021/12/11 08:14:42;;;;;;;3.30;1.77;;;;;;;;;;5089725;28;20435;-67
2021/12/11 08:17:11;;;;;;;2.17;1.57;;;;;;;;;;5088560;28;20462;-67
2021/12/11 08:19:39;;;;;;;2.07;1.33;;;;;;;;;;5088537;28;20255;-67
2021/12/11 08:22:08;;;;;;;5.70;2.03;;;;;;;;;;5091024;28;20507;-66
2021/12/11 08:24:37;;;;;;;2.63;1.70;;;;;;;;;;5089153;28;20716;-67
2021/12/11 08:27:10;;;;;;;4.00;1.90;;;;;;;;;;5089133;28;20440;-67
2021/12/11 08:29:40;;;;;;;5.37;1.87;;;;;;;;;;5089565;28;20488;-68
2021/12/11 08:32:08;;;;;;;3.87;1.63;;;;;;;;;;5089398;28;20237;-66
2021/12/11 08:34:37;;;;;;;4.53;2.37;;;;;;;;;;5090475;28;20432;-67
2021/12/11 08:37:06;;;;;;;1.83;1.60;;;;;;;;;;5088943;28;20547;-68
2021/12/11 08:39:34;;;;;;;2.67;1.50;;;;;;;;;;5088717;28;21004;-65
2021/12/11 08:42:07;;;;;;;6.80;2.37;;;;;;;;;;5091779;28;20441;-66
2021/12/11 08:44:38;;;;;;;1.70;1.60;;;;;;;;;;5089654;28;20208;-65
2021/12/11 08:47:09;;;;;;;3.07;1.57;;;;;;;;;;5086273;28;20432;-66
2021/12/11 08:49:38;;;;;;;2.97;1.30;;;;;;;;;;5093076;28;20214;-65
2021/12/11 08:52:10;;;;;;;2.67;1.77;;;;;;;;;;5088743;28;20225;-68
2021/12/11 08:54:38;;;;;;;2.27;1.80;;;;;;;;;;5089698;28;20440;-67
2021/12/11 08:57:07;;;;;;;1.97;1.63;;;;;;;;;;5085320;28;20556;-67
2021/12/11 08:59:36;;;;;;;4.43;1.47;;;;;;;;;;5089728;28;20221;-67
2021/12/11 09:02:06;;;;;;;4.33;1.90;;;;;;;;;;5088212;28;20468;-67
2021/12/11 09:04:43;;;;;;;3.67;1.60;;;;;;;;;;5089869;28;20442;-67
2021/12/11 09:07:12;;;;;;;3.10;1.50;;;;;;;;;;5079826;28;20799;-67
2021/12/11 09:09:44;;;;;;;5.03;1.73;;;;;;;;;;5077416;28;20222;-67
2021/12/11 09:12:14;;;;;;;5.27;2.37;;;;;;;;;;5077169;28;20700;-67
2021/12/11 09:14:44;;;;;;;4.73;1.80;;;;;;;;;;5077182;28;20569;-67
2021/12/11 09:17:15;;;;;;;5.80;1.43;;;;;;;;;;5077640;28;20220;-67
2021/12/11 09:19:47;;;;;;;5.87;1.97;;;;;;;;;;5081308;28;20228;-67
2021/12/11 09:22:17;;;;;;;5.63;3.50;;;;;;;;;;5088342;28;20284;-67
2021/12/11 09:24:51;;;;;;;4.80;1.90;;;;;;;;;;5101173;28;20213;-67
2021/12/11 09:27:21;;;;;;;5.60;1.70;;;;;;;;;;5101242;28;20284;-67
2021/12/11 09:29:51;;;;;;;5.77;2.50;;;;;;;;;;5098862;28;20260;-67
2021/12/11 09:32:24;;;;;;;3.07;1.43;;;;;;;;;;5080917;28;20280;-67
2021/12/11 09:34:55;;;;;;;3.20;1.40;;;;;;;;;;5080705;28;20581;-67
2021/12/11 09:37:25;;;;;;;4.53;1.53;;;;;;;;;;5094203;28;20312;-67
2021/12/11 09:39:54;;;;;;;4.40;1.60;;;;;;;;;;5098457;28;20226;-67
2021/12/11 09:42:22;;;;;;;4.03;1.57;;;;;;;;;;5080330;28;20964;-67
2021/12/11 09:44:55;;;;;;;3.10;1.37;;;;;;;;;;5080454;28;20210;-67
2021/12/11 09:47:27;;;;;;;4.10;1.43;;;;;;;;;;5088404;28;20202;-67
2021/12/11 09:49:59;;;;;;;3.70;1.43;;;;;;;;;;5100708;28;20229;-67
2021/12/11 09:52:28;;;;;;;4.00;1.50;;;;;;;;;;5101039;28;20222;-67
2021/12/11 09:54:59;;;;;;;5.03;1.80;;;;;;;;;;5100618;28;20288;-67
2021/12/11 09:57:28;;;;;;;3.13;1.50;;;;;;;;;;5100594;28;20575;-66
2021/12/11 10:00:00;;;;;;;2.20;1.67;;;;;;;;;;5097295;28;20217;-66
2021/12/11 10:02:29;;;;;;;4.20;1.30;;;;;;;;;;5091634;28;20202;-66
2021/12/11 10:05:00;;;;;;;1.90;1.50;;;;;;;;;;5092421;28;20276;-66
2021/12/11 10:07:33;;;;;;;2.40;1.37;;;;;;;;;;5091600;28;20590;-66
2021/12/11 10:10:06;;;;;;;2.30;1.37;;;;;;;;;;5092522;28;20229;-66
2021/12/11 10:12:36;;;;;;;4.07;2.13;;;;;;;;;;5092059;28;20706;-66
2021/12/11 10:15:08;;;;;;;6.10;1.63;;;;;;;;;;5091108;28;20197;-66
2021/12/11 10:17:40;;;;;;;3.93;1.40;;;;;;;;;;5092935;28;20202;-66
2021/12/11 10:20:12;;;;;;;2.13;1.40;;;;;;;;;;5090786;28;20233;-66
2021/12/11 10:22:41;;;;;;;4.23;1.50;;;;;;;;;;5094110;28;20206;-66
2021/12/11 10:25:11;;;;;;;7.07;1.83;;;;;;;;;;5090578;28;20450;-66
2021/12/11 10:27:39;;;;;;;2.57;1.70;;;;;;;;;;5093280;28;20818;-66
2021/12/11 10:30:10;;;;;;;5.43;3.70;;;;;;;;;;5090038;28;20448;-66
2021/12/11 10:32:38;;;;;;;7.87;2.67;;;;;;;;;;5092698;28;20472;-66
2021/12/11 10:35:08;;;;;;;6.57;2.37;;;;;;;;;;5090357;28;20783;-66
2021/12/11 10:37:37;;;;;;;1.80;1.50;;;;;;;;;;5092587;28;20970;-67
2021/12/11 10:40:08;;;;;;;3.90;1.70;;;;;;;;;;5090089;28;20437;-67
2021/12/11 10:42:36;;;;;;;3.60;1.90;;;;;;;;;;5091168;28;20440;-67
2021/12/11 10:45:07;;;;;;;3.03;1.70;;;;;;;;;;5091286;28;20443;-66
2021/12/11 10:47:39;;;;;;;6.27;2.00;;;;;;;;;;5093731;28;20446;-67
2021/12/11 10:50:15;;;;;;;3.03;1.93;;;;;;;;;;5094744;28;20435;-67
2021/12/11 10:52:43;;;;;;;3.77;1.73;;;;;;;;;;5099703;28;20450;-66
2021/12/11 10:55:13;;;;;;;4.47;2.07;;;;;;;;;;5099373;28;20201;-66
2021/12/11 10:57:41;;;;;;;10.63;1.83;;;;;;;;;;5099758;28;20201;-66
2021/12/11 11:00:12;;;;;;;5.30;2.33;;;;;;;;;;5098672;28;20209;-67
2021/12/11 11:02:41;;;;;;;4.30;1.83;;;;;;;;;;5087983;28;20201;-66
2021/12/11 11:05:13;;;;;;;7.27;2.83;;;;;;;;;;5092121;28;20450;-66
2021/12/11 11:07:42;;;;;;;4.83;2.47;;;;;;;;;;5089298;28;20210;-65
2021/12/11 11:10:12;;;;;;;4.60;2.50;;;;;;;;;;5089052;28;21030;-65
2021/12/11 11:12:40;;;;;;;3.80;1.93;;;;;;;;;;5089809;28;20521;-66
2021/12/11 11:15:09;;;;;;;4.77;2.07;;;;;;;;;;5089155;28;20446;-66
2021/12/11 11:17:37;;;;;;;1.80;1.40;;;;;;;;;;5089461;28;20945;-66
2021/12/11 11:20:09;;;;;;;3.57;1.70;;;;;;;;;;5088486;28;20439;-65
2021/12/11 11:22:39;;;;;;;4.80;2.53;;;;;;;;;;5089773;28;20204;-66
2021/12/11 11:25:09;;;;;;;6.57;2.00;;;;;;;;;;5086714;28;20697;-67
2021/12/11 11:27:37;;;;;;;3.40;1.30;;;;;;;;;;5090534;28;20279;-66
2021/12/11 11:30:06;;;;;;;4.93;1.80;;;;;;;;;;5090397;28;20237;-67
2021/12/11 11:32:34;;;;;;;6.13;2.43;;;;;;;;;;5089374;28;20201;-66
2021/12/11 11:35:04;;;;;;;7.00;2.70;;;;;;;;;;5089237;28;20765;-66
2021/12/11 11:37:46;;;;;;;4.63;2.03;;;;;;;;;;5088812;28;20260;-65
2021/12/11 11:40:16;;;;;;;3.50;1.70;;;;;;;;;;5096290;28;20523;-65
2021/12/11 11:42:44;;;;;;;3.30;1.73;;;;;;;;;;5092590;28;20440;-65
2021/12/11 11:45:13;;;;;;;1.67;1.27;;;;;;;;;;5089171;28;20440;-66
2021/12/11 11:47:43;;;;;;;6.17;1.77;;;;;;;;;;5090677;28;20475;-65
2021/12/11 11:50:12;;;;;;;2.07;1.83;;;;;;;;;;5086972;28;20538;-66
2021/12/11 11:52:41;;;;;;;8.20;2.37;;;;;;;;;;5088273;28;20515;-66
2021/12/11 11:55:12;;;;;;;4.50;1.77;;;;;;;;;;5089874;28;20883;-66
2021/12/11 11:57:41;;;;;;;4.67;1.93;;;;;;;;;;5088888;28;20435;-66
2021/12/11 12:00:11;;;;;;;2.60;1.70;;;;;;;;;;5088842;28;20495;-66
2021/12/11 12:02:39;;;;;;;4.40;1.90;;;;;;;;;;5090685;28;20439;-66
2021/12/11 12:05:08;;;;;;;3.47;1.43;;;;;;;;;;5089936;28;20435;-66
2021/12/11 12:07:37;;;;;;;4.37;1.97;;;;;;;;;;5088120;28;20438;-66
2021/12/11 12:10:07;;;;;;;7.60;2.13;;;;;;;;;;5089326;28;20467;-66
2021/12/11 12:12:37;;;;;;;4.17;1.93;;;;;;;;;;5088200;28;20531;-66
2021/12/11 12:15:07;;;;;;;4.43;2.07;;;;;;;;;;5086463;28;20476;-66
2021/12/11 12:17:35;;;;;;;7.30;2.27;;;;;;;;;;5087941;28;20198;-66
2021/12/11 12:20:05;;;;;;;6.23;1.50;;;;;;;;;;5089629;28;20224;-66
2021/12/11 12:22:33;;;;;;;4.30;1.80;;;;;;;;;;5087837;28;20201;-66
2021/12/11 12:25:02;;;;;;;5.07;1.90;;;;;;;;;;5088564;28;20189;-66
2021/12/11 12:27:31;;;;;;;3.13;1.77;;;;;;;;;;5088385;28;20209;-66
2021/12/11 12:30:05;;;;;;;3.60;1.77;;;;;;;;;;5087986;28;20221;-66
2021/12/11 12:32:35;;;;;;;3.80;1.70;;;;;;;;;;5086968;28;20210;-66
2021/12/11 12:35:04;;;;;;;4.67;1.73;;;;;;;;;;5089966;28;20225;-66
2021/12/11 12:37:32;;;;;;;5.30;1.87;;;;;;;;;;5087506;28;20226;-66
2021/12/11 12:40:02;;;;;;;2.90;1.90;;;;;;;;;;5090826;28;20465;-66
2021/12/11 12:42:35;;;;;;;6.60;2.00;;;;;;;;;;5088169;28;20793;-66
2021/12/11 12:45:09;;;;;;;5.13;1.80;;;;;;;;;;5085773;28;20194;-66
2021/12/11 12:47:38;;;;;;;3.63;1.53;;;;;;;;;;5096167;28;20227;-66
2021/12/11 12:50:09;;;;;;;4.40;2.00;;;;;;;;;;5096107;28;20236;-68
2021/12/11 12:52:42;;;;;;;5.77;2.20;;;;;;;;;;5095841;28;20806;-68
2021/12/11 12:55:15;;;;;;;3.00;1.40;;;;;;;;;;5097507;28;20494;-68
2021/12/11 12:57:45;;;;;;;3.77;1.40;;;;;;;;;;5096835;28;20443;-68
2021/12/11 13:00:17;;;;;;;4.10;1.37;;;;;;;;;;5097919;28;20448;-68
2021/12/11 13:02:46;;;;;;;4.33;1.90;;;;;;;;;;5097077;28;20546;-68
2021/12/11 13:05:16;;;;;;;7.53;1.77;;;;;;;;;;5097252;28;20838;-67
2021/12/11 13:07:52;;;;;;;3.27;1.93;;;;;;;;;;5097119;28;21007;-68
2021/12/11 13:10:23;;;;;;;2.40;1.77;;;;;;;;;;5097164;28;20448;-68
2021/12/11 13:12:51;;;;;;;4.93;2.30;;;;;;;;;;5097474;28;20447;-68
2021/12/11 13:15:23;;;;;;;3.00;1.83;;;;;;;;;;5097339;28;20487;-68
2021/12/11 13:17:52;;;;;;;6.13;2.17;;;;;;;;;;5097011;28;20450;-68
2021/12/11 13:20:22;;;;;;;5.73;2.10;;;;;;;;;;5097053;28;20450;-64
2021/12/11 13:22:51;;;;;;;1.00;0.87;;;;;;;;;;5097667;28;20447;-64
2021/12/11 13:25:20;;;;;;;4.10;2.00;;;;;;;;;;5087592;28;20455;-64
2021/12/11 13:27:49;;;;;;;1.50;1.40;;;;;;;;;;5088013;28;20510;-64
2021/12/11 13:30:20;;;;;;;3.67;1.60;;;;;;;;;;5083204;28;20440;-64
2021/12/11 13:32:49;;;;;;;4.43;2.13;;;;;;;;;;5096869;28;20513;-64
2021/12/11 13:35:19;;;;;;;4.67;3.50;;;;;;;;;;5097213;28;20483;-64
2021/12/11 13:37:49;;;;;;;2.50;1.83;;;;;;;;;;5097061;28;21045;-63
2021/12/11 13:40:18;;;;;;;4.77;2.00;;;;;;;;;;5092797;28;20531;-64
2021/12/11 13:42:47;;;;;;;2.30;1.23;;;;;;;;;;5088087;28;20439;-64
2021/12/11 13:45:16;;;;;;;6.47;1.97;;;;;;;;;;5088084;28;21019;-64
2021/12/11 13:47:45;;;;;;;1.87;1.43;;;;;;;;;;5089565;28;20490;-64
2021/12/11 13:50:16;;;;;;;5.60;1.37;;;;;;;;;;5087936;28;20513;-64
2021/12/11 13:52:44;;;;;;;3.00;1.50;;;;;;;;;;5087424;28;20526;-64
2021/12/11 13:55:13;;;;;;;1.30;1.20;;;;;;;;;;5086549;28;20479;-64
2021/12/11 13:57:59;;;;;;;2.97;1.43;;;;;;;;;;5087667;28;20240;-65
2021/12/11 14:00:29;;;;;;;1.77;1.40;;;;;;;;;;5090231;28;20285;-65
2021/12/11 14:03:10;;;;;;;1.10;1.07;;;;;;;;;;5090696;28;20197;-65
2021/12/11 14:05:40;;;;;;;2.10;1.00;;;;;;;;;;5091342;28;20232;-64
2021/12/11 14:08:10;;;;;;;2.50;1.47;;;;;;;;;;5093727;28;20571;-64
2021/12/11 14:10:38;;;;;;;3.17;2.00;;;;;;;;;;5091067;28;20467;-64
2021/12/11 14:13:08;;;;;;;2.17;1.83;;;;;;;;;;5093537;28;20459;-64
2021/12/11 14:15:36;;;;;;;2.07;1.63;;;;;;;;;;5091137;28;20481;-64
2021/12/11 14:18:05;;;;;;;5.10;1.93;;;;;;;;;;5093208;28;20814;-64
2021/12/11 14:20:33;;;;;;;13.00;6.30;;;;;;;;;;5091115;28;20440;-64
2021/12/11 14:23:06;;;;;;;5.20;1.57;;;;;;;;;;5093522;28;20435;-64
2021/12/11 14:25:34;;;;;;;5.67;2.23;;;;;;;;;;5090927;28;20440;-64
2021/12/11 14:28:04;;;;;;;3.60;2.00;;;;;;;;;;5093243;28;20455;-64
2021/12/11 14:30:33;;;;;;;5.00;1.37;;;;;;;;;;5092063;28;20443;-64
2021/12/11 14:33:01;;;;;;;2.17;1.73;;;;;;;;;;5091397;28;20471;-64
2021/12/11 14:35:31;;;;;;;3.80;1.90;;;;;;;;;;5091227;28;20278;-64
2021/12/11 14:38:02;;;;;;;2.57;1.70;;;;;;;;;;5091733;28;20971;-64
2021/12/11 14:40:36;;;;;;;4.40;1.83;;;;;;;;;;5092505;28;20564;-64
2021/12/11 14:43:05;;;;;;;3.13;1.40;;;;;;;;;;5087584;28;20887;-64
2021/12/11 14:45:35;;;;;;;7.53;1.93;;;;;;;;;;5089853;28;20432;-64
2021/12/11 14:48:03;;;;;;;4.20;1.93;;;;;;;;;;5086397;28;20475;-64
2021/12/11 14:50:32;;;;;;;4.43;1.93;;;;;;;;;;5089601;28;20431;-64
2021/12/11 14:53:01;;;;;;;4.17;2.30;;;;;;;;;;5088233;28;20462;-64
2021/12/11 14:55:31;;;;;;;5.83;3.00;;;;;;;;;;5087859;28;20480;-65
2021/12/11 14:58:01;;;;;;;2.73;1.50;;;;;;;;;;5090935;28;20611;-65
2021/12/11 15:00:31;;;;;;;3.30;1.47;;;;;;;;;;5090929;28;20436;-65
2021/12/11 15:02:59;;;;;;;5.93;1.57;;;;;;;;;;5090507;28;20443;-64
2021/12/11 15:05:29;;;;;;;2.30;1.87;;;;;;;;;;5090643;28;20467;-64